Alexandria Bay, New York
Current Conditions -  °F | °C
As of 12:23 PM on Thursday 23 Oct 2014 (Local Time) from KGTB Reporting Station
Broken Clouds Broken Clouds  
Wind Chill: 10°   Ceiling: 2800
Heat Index: 10°   Visibility: 10mi
Dew Point:   Wind: 21mph
Humidity: 62%   Direction: 40°NE
Pressure: 29.98"   Gusts: NA
Location:  44.34°N, 75.92°W
Report Text: KGTB 231623Z AUTO 04018KT 10SM BKN028 10/03 A2998 RMK AO2
Loading
Personal Weather Stations






























Interactive Weather Map
Tropical Storm Tracking
New forecast layout! Learn more

10-Day Weather Forecast

Advertisements
Track Severe Weather on mobile